This is the latest recevied weather packets stored in our database for station/object WA1RYQ. If no packets are shown the sender has not sent any weather packets the latest 10 day(s).
| Time | Temp. | Humidity | Pressure | Rain* | Wind** | Luminosity | Snow |
|---|---|---|---|---|---|---|---|
| 1777345252 | 24.44° C | 71% | 1018.6 hPa | 0 mm | - | 0 W/m² | - |
| 1777344635 | 24.44° C | 71% | 1018.5 hPa | 0 mm | - | 0 W/m² | - |
| 1777342823 | 25° C | 71% | 1018.2 hPa | 0 mm | - | 0 W/m² | - |
| 1777341926 | 25.56° C | 71% | 1018.2 hPa | 0 mm | - | 0 W/m² | - |
| 1777340152 | 26.11° C | 69% | 1017.5 hPa | 0 mm | - | 0 W/m² | - |
| 1777338341 | 26.67° C | 67% | 1017 hPa | 0 mm | - | 0 W/m² | - |
| 1777338063 | 26.67° C | 66% | 1016.8 hPa | 0 mm | - | 0 W/m² | - |
| 1777336812 | 27.22° C | 65% | 1016.4 hPa | 0 mm | - | 0 W/m² | - |
| 1777334128 | 28.33° C | 63% | 1015.8 hPa | 0 mm | - | 5 W/m² | - |
| 1777333559 | 28.33° C | 63% | 1015.7 hPa | 0 mm | - | 14 W/m² | - |
| 1777333216 | 28.33° C | 62% | 1015.7 hPa | 0 mm | - | 19 W/m² | - |
| 1777332030 | 29.44° C | 59% | 1015.3 hPa | 0 mm | - | 37 W/m² | - |
| 1777331408 | 30° C | 58% | 1015.1 hPa | 0 mm | - | 60 W/m² | - |
| 1777330512 | 30° C | 65% | 1015 hPa | 0 mm | - | 120 W/m² | - |
| 1777330239 | 29.44° C | 67% | 1014.9 hPa | 0 mm | - | 135 W/m² | - |
| 1777329339 | 29.44° C | 70% | 1014.8 hPa | 0 mm | - | 130 W/m² | - |
| 1777328439 | 28.89° C | 70% | 1014.7 hPa | 0 mm | - | 79 W/m² | - |
| 1777326012 | 30° C | 65% | 1014.9 hPa | 0 mm | - | 86 W/m² | - |
| 1777324543 | 30.56° C | 62% | 1014.8 hPa | 0 mm | - | 522 W/m² | - |
| 1777324256 | 30.56° C | 62% | 1014.8 hPa | 0 mm | - | 527 W/m² | - |
| 1777323012 | 30.56° C | 65% | 1015 hPa | 0 mm | - | 657 W/m² | - |
| 1777321828 | 30.56° C | 65% | 1014.9 hPa | 0 mm | - | 631 W/m² | - |
| 1777321204 | 30.56° C | 65% | 1015 hPa | 0 mm | - | 636 W/m² | - |
| 1777318508 | 30.56° C | 64% | 1015.3 hPa | 0 mm | - | 406 W/m² | - |
| 1777318255 | 31.11° C | 65% | 1015.3 hPa | 0 mm | - | 895 W/m² | - |
* Rain latest hour (hover to see other rain measurements)
** Current wind speed in m/s (hover to see current wind gust speed)